This is the latest recevied weather packets stored in our database for station/object 9M2VER-13. If no packets are shown the sender has not sent any weather packets the latest 10 day(s).
| Time | Temp. | Humidity | Pressure | Rain* | Wind** | Luminosity | Snow |
|---|---|---|---|---|---|---|---|
| 1778081038 | 30° C | 85% | 0 hPa | - | - | 0 W/m² | - |
| 1778080738 | 30.56° C | 84% | 0 hPa | - | - | 0 W/m² | - |
| 1778080438 | 30.56° C | 84% | 0 hPa | - | - | 0 W/m² | - |
| 1778080138 | 30.56° C | 84% | 0 hPa | - | - | 0 W/m² | - |
| 1778079839 | 30° C | 85% | 0 hPa | - | - | 0 W/m² | - |
| 1778079538 | 30.56° C | 85% | 0 hPa | - | - | 0 W/m² | - |
| 1778079238 | 30° C | 85% | 0 hPa | - | - | 0 W/m² | - |
| 1778078938 | 30° C | 86% | 0 hPa | - | - | 0 W/m² | - |
| 1778078638 | 29.44° C | 87% | 0 hPa | - | - | 0 W/m² | - |
| 1778078338 | 30.56° C | 83% | 0 hPa | - | - | 0 W/m² | - |
| 1778078038 | 30.56° C | 83% | 0 hPa | - | - | 0 W/m² | - |
| 1778077738 | 30.56° C | 86% | 0 hPa | - | - | 0 W/m² | - |
| 1778077438 | 30.56° C | 83% | 0 hPa | - | - | 0 W/m² | - |
| 1778077138 | 30.56° C | 83% | 0 hPa | - | - | 0 W/m² | - |
| 1778076838 | 30.56° C | 83% | 0 hPa | - | - | 0 W/m² | - |
| 1778076538 | 30.56° C | 83% | 0 hPa | - | - | 0 W/m² | - |
| 1778076238 | 30.56° C | 83% | 0 hPa | - | - | 0 W/m² | - |
| 1778075938 | 31.11° C | 82% | 0 hPa | - | - | 0 W/m² | - |
| 1778075638 | 30.56° C | 83% | 0 hPa | - | - | 0 W/m² | - |
| 1778075337 | 30.56° C | 83% | 0 hPa | - | - | 0 W/m² | - |
| 1778075037 | 30.56° C | 83% | 0 hPa | - | - | 0 W/m² | - |
| 1778074737 | 30.56° C | 83% | 0 hPa | - | - | 0 W/m² | - |
| 1778074437 | 30.56° C | 83% | 0 hPa | - | - | 0 W/m² | - |
| 1778074137 | 30.56° C | 83% | 0 hPa | - | - | 0 W/m² | - |
| 1778073837 | 30.56° C | 83% | 0 hPa | - | - | 0 W/m² | - |
* Rain since midnight (hover to see other rain measurements)
** Current wind speed in m/s (hover to see current wind gust speed)